sensor_id;sensor_type;location;lat;lon;timestamp;temperature;humidity
19248;DHT22;9758;48.640;8.148;2023-07-13T00:00:46;23.90;43.20
19248;DHT22;9758;48.640;8.148;2023-07-13T00:03:14;23.90;43.20
19248;DHT22;9758;48.640;8.148;2023-07-13T00:05:42;23.90;42.60
19248;DHT22;9758;48.640;8.148;2023-07-13T00:08:09;23.80;42.50
19248;DHT22;9758;48.640;8.148;2023-07-13T00:10:39;23.80;42.60
19248;DHT22;9758;48.640;8.148;2023-07-13T00:13:07;23.80;42.60
19248;DHT22;9758;48.640;8.148;2023-07-13T00:15:34;23.80;42.60
19248;DHT22;9758;48.640;8.148;2023-07-13T00:18:01;23.80;42.60
19248;DHT22;9758;48.640;8.148;2023-07-13T00:20:29;23.70;42.60
19248;DHT22;9758;48.640;8.148;2023-07-13T00:22:56;23.70;42.60
19248;DHT22;9758;48.640;8.148;2023-07-13T00:25:23;23.60;42.60
19248;DHT22;9758;48.640;8.148;2023-07-13T00:27:53;23.60;42.70
19248;DHT22;9758;48.640;8.148;2023-07-13T00:30:20;23.60;42.70
19248;DHT22;9758;48.640;8.148;2023-07-13T00:32:47;23.50;42.70
19248;DHT22;9758;48.640;8.148;2023-07-13T00:35:15;23.50;42.70
19248;DHT22;9758;48.640;8.148;2023-07-13T00:37:43;23.50;42.70
19248;DHT22;9758;48.640;8.148;2023-07-13T00:40:11;23.40;42.70
19248;DHT22;9758;48.640;8.148;2023-07-13T00:42:38;23.40;42.70
19248;DHT22;9758;48.640;8.148;2023-07-13T00:46:14;23.30;42.70
19248;DHT22;9758;48.640;8.148;2023-07-13T00:47:56;23.30;42.70
19248;DHT22;9758;48.640;8.148;2023-07-13T00:50:24;23.20;42.70
19248;DHT22;9758;48.640;8.148;2023-07-13T00:52:54;23.20;42.70
19248;DHT22;9758;48.640;8.148;2023-07-13T00:55:23;23.20;42.80
19248;DHT22;9758;48.640;8.148;2023-07-13T00:57:50;23.10;42.80
19248;DHT22;9758;48.640;8.148;2023-07-13T01:00:17;23.10;42.80
19248;DHT22;9758;48.640;8.148;2023-07-13T01:02:48;23.00;42.90
19248;DHT22;9758;48.640;8.148;2023-07-13T01:05:19;23.00;42.90
19248;DHT22;9758;48.640;8.148;2023-07-13T01:07:48;22.90;42.90
19248;DHT22;9758;48.640;8.148;2023-07-13T01:10:17;22.80;42.90
19248;DHT22;9758;48.640;8.148;2023-07-13T01:12:47;22.70;42.90
19248;DHT22;9758;48.640;8.148;2023-07-13T01:15:33;22.70;43.00
19248;DHT22;9758;48.640;8.148;2023-07-13T01:18:00;22.60;43.10
19248;DHT22;9758;48.640;8.148;2023-07-13T01:20:28;22.60;43.10
19248;DHT22;9758;48.640;8.148;2023-07-13T01:22:56;22.50;43.10
19248;DHT22;9758;48.640;8.148;2023-07-13T01:25:22;22.50;43.20
19248;DHT22;9758;48.640;8.148;2023-07-13T01:27:49;22.50;43.20
19248;DHT22;9758;48.640;8.148;2023-07-13T01:30:16;22.40;43.20
19248;DHT22;9758;48.640;8.148;2023-07-13T01:32:42;22.40;43.20
19248;DHT22;9758;48.640;8.148;2023-07-13T01:35:09;22.30;43.30
19248;DHT22;9758;48.640;8.148;2023-07-13T01:37:38;22.30;43.30
19248;DHT22;9758;48.640;8.148;2023-07-13T01:40:07;22.20;43.30
19248;DHT22;9758;48.640;8.148;2023-07-13T01:42:34;22.10;43.30
19248;DHT22;9758;48.640;8.148;2023-07-13T01:45:01;22.00;43.30
19248;DHT22;9758;48.640;8.148;2023-07-13T01:47:27;22.00;43.40
19248;DHT22;9758;48.640;8.148;2023-07-13T01:49:56;22.00;43.50
19248;DHT22;9758;48.640;8.148;2023-07-13T01:52:23;21.90;43.50
19248;DHT22;9758;48.640;8.148;2023-07-13T01:54:50;21.90;43.50
19248;DHT22;9758;48.640;8.148;2023-07-13T01:57:18;21.80;43.50
19248;DHT22;9758;48.640;8.148;2023-07-13T01:59:44;21.80;43.50
19248;DHT22;9758;48.640;8.148;2023-07-13T02:02:11;21.70;43.50
19248;DHT22;9758;48.640;8.148;2023-07-13T02:04:38;21.70;43.60
19248;DHT22;9758;48.640;8.148;2023-07-13T02:07:05;21.60;43.60
19248;DHT22;9758;48.640;8.148;2023-07-13T02:09:31;21.60;43.60
19248;DHT22;9758;48.640;8.148;2023-07-13T02:11:58;21.50;43.60
19248;DHT22;9758;48.640;8.148;2023-07-13T02:14:26;21.50;43.70
19248;DHT22;9758;48.640;8.148;2023-07-13T02:16:53;21.40;43.80
19248;DHT22;9758;48.640;8.148;2023-07-13T02:19:20;21.40;43.80
19248;DHT22;9758;48.640;8.148;2023-07-13T02:21:47;21.30;43.80
19248;DHT22;9758;48.640;8.148;2023-07-13T02:24:14;21.30;43.80
19248;DHT22;9758;48.640;8.148;2023-07-13T02:26:43;21.20;43.80
19248;DHT22;9758;48.640;8.148;2023-07-13T02:29:10;21.20;43.90
19248;DHT22;9758;48.640;8.148;2023-07-13T02:31:38;21.10;43.90
19248;DHT22;9758;48.640;8.148;2023-07-13T02:34:05;21.10;43.90
19248;DHT22;9758;48.640;8.148;2023-07-13T02:36:32;21.10;44.00
19248;DHT22;9758;48.640;8.148;2023-07-13T02:39:01;21.00;44.00
19248;DHT22;9758;48.640;8.148;2023-07-13T02:41:28;21.00;44.10
19248;DHT22;9758;48.640;8.148;2023-07-13T02:43:55;20.90;44.10
19248;DHT22;9758;48.640;8.148;2023-07-13T02:46:28;20.90;44.10
19248;DHT22;9758;48.640;8.148;2023-07-13T02:48:56;20.80;44.10
19248;DHT22;9758;48.640;8.148;2023-07-13T02:51:23;20.80;44.10
19248;DHT22;9758;48.640;8.148;2023-07-13T02:53:49;20.70;44.10
19248;DHT22;9758;48.640;8.148;2023-07-13T02:56:16;20.70;44.20
19248;DHT22;9758;48.640;8.148;2023-07-13T02:58:43;20.70;44.20
19248;DHT22;9758;48.640;8.148;2023-07-13T03:01:11;20.60;44.20
19248;DHT22;9758;48.640;8.148;2023-07-13T03:03:38;20.60;44.20
19248;DHT22;9758;48.640;8.148;2023-07-13T03:06:06;20.60;44.20
19248;DHT22;9758;48.640;8.148;2023-07-13T03:08:33;20.60;44.20
19248;DHT22;9758;48.640;8.148;2023-07-13T03:11:00;20.50;44.20
19248;DHT22;9758;48.640;8.148;2023-07-13T03:13:28;20.50;44.30
19248;DHT22;9758;48.640;8.148;2023-07-13T03:15:54;20.50;44.30
19248;DHT22;9758;48.640;8.148;2023-07-13T03:18:21;20.40;44.30
19248;DHT22;9758;48.640;8.148;2023-07-13T03:20:50;20.40;44.30
19248;DHT22;9758;48.640;8.148;2023-07-13T03:23:20;20.40;44.30
19248;DHT22;9758;48.640;8.148;2023-07-13T03:25:46;20.40;44.30
19248;DHT22;9758;48.640;8.148;2023-07-13T03:28:14;20.30;44.30
19248;DHT22;9758;48.640;8.148;2023-07-13T03:30:41;20.30;44.30
19248;DHT22;9758;48.640;8.148;2023-07-13T03:33:08;20.30;44.30
19248;DHT22;9758;48.640;8.148;2023-07-13T03:35:35;20.30;44.30
19248;DHT22;9758;48.640;8.148;2023-07-13T03:38:06;20.30;44.30
19248;DHT22;9758;48.640;8.148;2023-07-13T03:40:34;20.30;44.40
19248;DHT22;9758;48.640;8.148;2023-07-13T03:43:01;20.30;44.40
19248;DHT22;9758;48.640;8.148;2023-07-13T03:45:28;20.30;44.30
19248;DHT22;9758;48.640;8.148;2023-07-13T03:47:54;20.30;44.30
19248;DHT22;9758;48.640;8.148;2023-07-13T03:50:21;20.30;44.40
19248;DHT22;9758;48.640;8.148;2023-07-13T03:52:48;20.20;44.30
19248;DHT22;9758;48.640;8.148;2023-07-13T03:55:14;20.20;44.30
19248;DHT22;9758;48.640;8.148;2023-07-13T03:57:42;20.20;44.40
19248;DHT22;9758;48.640;8.148;2023-07-13T04:00:10;20.20;44.40
19248;DHT22;9758;48.640;8.148;2023-07-13T04:02:37;20.20;44.30
19248;DHT22;9758;48.640;8.148;2023-07-13T04:05:04;20.30;44.30
19248;DHT22;9758;48.640;8.148;2023-07-13T04:07:32;20.30;44.30
19248;DHT22;9758;48.640;8.148;2023-07-13T04:09:58;20.20;44.30
19248;DHT22;9758;48.640;8.148;2023-07-13T04:12:25;20.20;44.20
19248;DHT22;9758;48.640;8.148;2023-07-13T04:14:53;20.20;44.20
19248;DHT22;9758;48.640;8.148;2023-07-13T04:17:20;20.20;44.30
19248;DHT22;9758;48.640;8.148;2023-07-13T04:19:47;20.20;44.30
19248;DHT22;9758;48.640;8.148;2023-07-13T04:22:14;20.20;44.30
19248;DHT22;9758;48.640;8.148;2023-07-13T04:24:41;20.10;44.30
19248;DHT22;9758;48.640;8.148;2023-07-13T04:27:08;20.10;44.30
19248;DHT22;9758;48.640;8.148;2023-07-13T04:29:35;20.10;44.30
19248;DHT22;9758;48.640;8.148;2023-07-13T04:32:04;20.10;44.30
19248;DHT22;9758;48.640;8.148;2023-07-13T04:34:31;20.10;44.30
19248;DHT22;9758;48.640;8.148;2023-07-13T04:36:59;20.10;44.40
19248;DHT22;9758;48.640;8.148;2023-07-13T04:39:26;20.10;44.40
19248;DHT22;9758;48.640;8.148;2023-07-13T04:41:53;20.10;44.40
19248;DHT22;9758;48.640;8.148;2023-07-13T04:44:21;20.10;44.40
19248;DHT22;9758;48.640;8.148;2023-07-13T04:46:48;20.00;44.30
19248;DHT22;9758;48.640;8.148;2023-07-13T04:49:16;20.10;44.30
19248;DHT22;9758;48.640;8.148;2023-07-13T04:51:43;20.10;44.40
19248;DHT22;9758;48.640;8.148;2023-07-13T04:54:10;20.10;44.40
19248;DHT22;9758;48.640;8.148;2023-07-13T04:56:37;20.10;44.30
19248;DHT22;9758;48.640;8.148;2023-07-13T04:59:03;20.10;44.30
19248;DHT22;9758;48.640;8.148;2023-07-13T05:01:30;20.10;44.30
19248;DHT22;9758;48.640;8.148;2023-07-13T05:03:57;20.10;44.30
19248;DHT22;9758;48.640;8.148;2023-07-13T05:06:26;20.10;44.30
19248;DHT22;9758;48.640;8.148;2023-07-13T05:08:53;20.10;44.40
19248;DHT22;9758;48.640;8.148;2023-07-13T05:11:20;20.10;44.30
19248;DHT22;9758;48.640;8.148;2023-07-13T05:13:47;20.20;44.40
19248;DHT22;9758;48.640;8.148;2023-07-13T05:16:14;20.20;44.40
19248;DHT22;9758;48.640;8.148;2023-07-13T05:18:40;20.20;44.30
19248;DHT22;9758;48.640;8.148;2023-07-13T05:21:09;20.20;44.30
19248;DHT22;9758;48.640;8.148;2023-07-13T05:23:37;20.30;44.40
19248;DHT22;9758;48.640;8.148;2023-07-13T05:26:04;20.30;44.30
19248;DHT22;9758;48.640;8.148;2023-07-13T05:28:31;20.40;44.30
19248;DHT22;9758;48.640;8.148;2023-07-13T05:30:58;20.40;44.30
19248;DHT22;9758;48.640;8.148;2023-07-13T05:33:25;20.40;44.30
19248;DHT22;9758;48.640;8.148;2023-07-13T05:35:52;20.50;44.30
19248;DHT22;9758;48.640;8.148;2023-07-13T05:38:19;20.60;45.00
19248;DHT22;9758;48.640;8.148;2023-07-13T05:40:48;20.60;44.30
19248;DHT22;9758;48.640;8.148;2023-07-13T05:43:15;20.70;44.30
19248;DHT22;9758;48.640;8.148;2023-07-13T05:45:42;20.70;44.20
19248;DHT22;9758;48.640;8.148;2023-07-13T05:48:08;20.80;44.20
19248;DHT22;9758;48.640;8.148;2023-07-13T05:50:35;20.90;44.20
19248;DHT22;9758;48.640;8.148;2023-07-13T05:53:02;21.00;44.20
19248;DHT22;9758;48.640;8.148;2023-07-13T05:55:29;21.10;44.20
19248;DHT22;9758;48.640;8.148;2023-07-13T05:57:57;21.10;44.20
19248;DHT22;9758;48.640;8.148;2023-07-13T06:00:25;21.20;44.10
19248;DHT22;9758;48.640;8.148;2023-07-13T06:02:52;21.30;44.10
19248;DHT22;9758;48.640;8.148;2023-07-13T06:05:19;21.40;44.10
19248;DHT22;9758;48.640;8.148;2023-07-13T06:07:45;21.50;44.10
19248;DHT22;9758;48.640;8.148;2023-07-13T06:10:12;21.60;44.00
19248;DHT22;9758;48.640;8.148;2023-07-13T06:12:39;21.70;44.10
19248;DHT22;9758;48.640;8.148;2023-07-13T06:15:08;21.70;44.00
19248;DHT22;9758;48.640;8.148;2023-07-13T06:17:35;21.80;44.00
19248;DHT22;9758;48.640;8.148;2023-07-13T06:20:01;21.80;44.00
19248;DHT22;9758;48.640;8.148;2023-07-13T06:22:28;21.90;44.10
19248;DHT22;9758;48.640;8.148;2023-07-13T06:24:55;22.00;44.20
19248;DHT22;9758;48.640;8.148;2023-07-13T06:27:22;22.00;44.20
19248;DHT22;9758;48.640;8.148;2023-07-13T06:29:48;22.10;44.20
19248;DHT22;9758;48.640;8.148;2023-07-13T06:32:17;22.10;44.10
19248;DHT22;9758;48.640;8.148;2023-07-13T06:34:43;22.20;44.00
19248;DHT22;9758;48.640;8.148;2023-07-13T06:37:11;22.30;44.10
19248;DHT22;9758;48.640;8.148;2023-07-13T06:39:37;22.40;44.10
19248;DHT22;9758;48.640;8.148;2023-07-13T06:42:05;22.40;44.00
19248;DHT22;9758;48.640;8.148;2023-07-13T06:44:32;22.50;44.00
19248;DHT22;9758;48.640;8.148;2023-07-13T06:46:59;22.60;43.90
19248;DHT22;9758;48.640;8.148;2023-07-13T06:49:27;22.60;43.80
19248;DHT22;9758;48.640;8.148;2023-07-13T06:51:54;22.60;44.50
19248;DHT22;9758;48.640;8.148;2023-07-13T06:54:20;22.60;43.80
19248;DHT22;9758;48.640;8.148;2023-07-13T06:56:47;22.70;43.90
19248;DHT22;9758;48.640;8.148;2023-07-13T06:59:14;22.70;43.90
19248;DHT22;9758;48.640;8.148;2023-07-13T07:01:40;22.70;43.90
19248;DHT22;9758;48.640;8.148;2023-07-13T07:04:07;22.70;44.00
19248;DHT22;9758;48.640;8.148;2023-07-13T07:06:35;22.80;44.00
19248;DHT22;9758;48.640;8.148;2023-07-13T07:09:02;22.80;43.90
19248;DHT22;9758;48.640;8.148;2023-07-13T07:11:29;22.80;43.80
19248;DHT22;9758;48.640;8.148;2023-07-13T07:13:56;22.80;43.80
19248;DHT22;9758;48.640;8.148;2023-07-13T07:16:24;22.90;43.90
19248;DHT22;9758;48.640;8.148;2023-07-13T07:18:51;23.00;44.20
19248;DHT22;9758;48.640;8.148;2023-07-13T07:21:18;23.00;43.90
19248;DHT22;9758;48.640;8.148;2023-07-13T07:23:46;23.10;43.90
19248;DHT22;9758;48.640;8.148;2023-07-13T07:26:12;23.10;43.80
19248;DHT22;9758;48.640;8.148;2023-07-13T07:29:01;23.20;43.70
19248;DHT22;9758;48.640;8.148;2023-07-13T07:31:28;23.30;43.70
19248;DHT22;9758;48.640;8.148;2023-07-13T07:33:54;23.40;43.70
19248;DHT22;9758;48.640;8.148;2023-07-13T07:36:21;23.50;43.60
19248;DHT22;9758;48.640;8.148;2023-07-13T07:38:50;23.60;43.50
19248;DHT22;9758;48.640;8.148;2023-07-13T07:41:17;23.70;43.40
19248;DHT22;9758;48.640;8.148;2023-07-13T07:43:43;23.70;43.40
19248;DHT22;9758;48.640;8.148;2023-07-13T07:46:11;23.70;43.40
19248;DHT22;9758;48.640;8.148;2023-07-13T07:48:38;23.80;43.50
19248;DHT22;9758;48.640;8.148;2023-07-13T07:51:05;23.90;43.40
19248;DHT22;9758;48.640;8.148;2023-07-13T07:53:31;24.00;43.40
19248;DHT22;9758;48.640;8.148;2023-07-13T07:55:58;24.10;43.40
19248;DHT22;9758;48.640;8.148;2023-07-13T07:58:25;24.10;43.30
19248;DHT22;9758;48.640;8.148;2023-07-13T08:00:51;24.30;43.30
19248;DHT22;9758;48.640;8.148;2023-07-13T08:03:19;24.30;43.20
19248;DHT22;9758;48.640;8.148;2023-07-13T08:05:46;24.30;43.10
19248;DHT22;9758;48.640;8.148;2023-07-13T08:08:13;24.30;43.20
19248;DHT22;9758;48.640;8.148;2023-07-13T08:10:40;24.30;43.20
19248;DHT22;9758;48.640;8.148;2023-07-13T08:13:06;24.30;43.30
19248;DHT22;9758;48.640;8.148;2023-07-13T08:15:33;24.40;43.20
19248;DHT22;9758;48.640;8.148;2023-07-13T08:18:00;24.40;43.20
19248;DHT22;9758;48.640;8.148;2023-07-13T08:20:28;24.50;43.20
19248;DHT22;9758;48.640;8.148;2023-07-13T08:22:55;24.50;43.10
19248;DHT22;9758;48.640;8.148;2023-07-13T08:25:21;24.60;43.10
19248;DHT22;9758;48.640;8.148;2023-07-13T08:27:48;24.50;43.10
19248;DHT22;9758;48.640;8.148;2023-07-13T08:30:15;24.60;43.10
19248;DHT22;9758;48.640;8.148;2023-07-13T08:32:42;24.60;43.10
19248;DHT22;9758;48.640;8.148;2023-07-13T08:35:09;24.70;43.20
19248;DHT22;9758;48.640;8.148;2023-07-13T08:37:38;24.80;43.10
19248;DHT22;9758;48.640;8.148;2023-07-13T08:40:07;24.90;43.00
19248;DHT22;9758;48.640;8.148;2023-07-13T08:42:39;25.00;43.00
19248;DHT22;9758;48.640;8.148;2023-07-13T08:45:17;25.10;42.80
19248;DHT22;9758;48.640;8.148;2023-07-13T08:47:48;25.20;42.60
19248;DHT22;9758;48.640;8.148;2023-07-13T08:50:19;25.20;42.60
19248;DHT22;9758;48.640;8.148;2023-07-13T08:52:48;25.30;42.50
19248;DHT22;9758;48.640;8.148;2023-07-13T08:55:17;25.30;42.40
19248;DHT22;9758;48.640;8.148;2023-07-13T08:57:48;25.40;42.30
19248;DHT22;9758;48.640;8.148;2023-07-13T09:00:18;25.40;42.30
19248;DHT22;9758;48.640;8.148;2023-07-13T09:02:47;25.50;42.00
19248;DHT22;9758;48.640;8.148;2023-07-13T09:05:24;25.50;42.10
19248;DHT22;9758;48.640;8.148;2023-07-13T09:08:15;25.50;42.00
19248;DHT22;9758;48.640;8.148;2023-07-13T09:10:45;25.60;41.80
19248;DHT22;9758;48.640;8.148;2023-07-13T09:13:22;25.60;42.10
19248;DHT22;9758;48.640;8.148;2023-07-13T09:15:50;25.70;42.10
19248;DHT22;9758;48.640;8.148;2023-07-13T09:18:21;25.90;42.10
19248;DHT22;9758;48.640;8.148;2023-07-13T09:20:57;26.00;41.90
19248;DHT22;9758;48.640;8.148;2023-07-13T09:23:29;26.10;41.80
19248;DHT22;9758;48.640;8.148;2023-07-13T09:26:00;26.20;41.70
19248;DHT22;9758;48.640;8.148;2023-07-13T09:28:33;26.40;41.60
19248;DHT22;9758;48.640;8.148;2023-07-13T09:31:03;26.40;41.40
19248;DHT22;9758;48.640;8.148;2023-07-13T09:33:31;26.50;41.50
19248;DHT22;9758;48.640;8.148;2023-07-13T09:36:01;26.70;41.50
19248;DHT22;9758;48.640;8.148;2023-07-13T09:38:30;26.80;41.50
19248;DHT22;9758;48.640;8.148;2023-07-13T09:41:02;26.90;41.30
19248;DHT22;9758;48.640;8.148;2023-07-13T09:43:34;26.90;41.10
19248;DHT22;9758;48.640;8.148;2023-07-13T09:46:01;27.00;41.20
19248;DHT22;9758;48.640;8.148;2023-07-13T09:48:34;27.00;40.80
19248;DHT22;9758;48.640;8.148;2023-07-13T09:51:10;27.00;40.80
19248;DHT22;9758;48.640;8.148;2023-07-13T09:53:44;27.00;40.50
19248;DHT22;9758;48.640;8.148;2023-07-13T09:56:19;27.00;40.40
19248;DHT22;9758;48.640;8.148;2023-07-13T09:58:46;26.90;40.40
19248;DHT22;9758;48.640;8.148;2023-07-13T10:01:15;26.90;41.30
19248;DHT22;9758;48.640;8.148;2023-07-13T10:03:57;26.80;40.40
19248;DHT22;9758;48.640;8.148;2023-07-13T10:06:23;26.80;40.60
19248;DHT22;9758;48.640;8.148;2023-07-13T10:08:55;26.80;40.60
19248;DHT22;9758;48.640;8.148;2023-07-13T10:11:23;26.80;40.60
19248;DHT22;9758;48.640;8.148;2023-07-13T10:13:56;26.80;40.60
19248;DHT22;9758;48.640;8.148;2023-07-13T10:16:25;26.80;40.50
19248;DHT22;9758;48.640;8.148;2023-07-13T10:18:55;26.80;40.60
19248;DHT22;9758;48.640;8.148;2023-07-13T10:21:28;26.90;40.20
19248;DHT22;9758;48.640;8.148;2023-07-13T10:24:04;26.90;40.30
19248;DHT22;9758;48.640;8.148;2023-07-13T10:26:33;26.90;40.20
19248;DHT22;9758;48.640;8.148;2023-07-13T10:29:04;26.90;40.30
19248;DHT22;9758;48.640;8.148;2023-07-13T10:31:40;26.90;40.20
19248;DHT22;9758;48.640;8.148;2023-07-13T10:34:09;26.80;40.00
19248;DHT22;9758;48.640;8.148;2023-07-13T10:36:41;26.70;40.20
19248;DHT22;9758;48.640;8.148;2023-07-13T10:39:15;26.70;40.30
19248;DHT22;9758;48.640;8.148;2023-07-13T10:41:44;26.70;40.50
19248;DHT22;9758;48.640;8.148;2023-07-13T10:44:21;26.80;40.60
19248;DHT22;9758;48.640;8.148;2023-07-13T10:46:52;26.90;40.50
19248;DHT22;9758;48.640;8.148;2023-07-13T10:49:19;27.10;40.30
19248;DHT22;9758;48.640;8.148;2023-07-13T10:51:47;27.20;40.00
19248;DHT22;9758;48.640;8.148;2023-07-13T10:54:20;27.30;39.80
19248;DHT22;9758;48.640;8.148;2023-07-13T10:57:08;27.40;40.00
19248;DHT22;9758;48.640;8.148;2023-07-13T10:59:35;27.50;39.20
19248;DHT22;9758;48.640;8.148;2023-07-13T11:02:12;27.50;39.60
19248;DHT22;9758;48.640;8.148;2023-07-13T11:04:43;27.50;39.60
19248;DHT22;9758;48.640;8.148;2023-07-13T11:07:19;27.40;39.50
19248;DHT22;9758;48.640;8.148;2023-07-13T11:09:51;27.30;39.50
19248;DHT22;9758;48.640;8.148;2023-07-13T11:12:49;27.40;39.70
19248;DHT22;9758;48.640;8.148;2023-07-13T11:15:30;27.50;39.60
19248;DHT22;9758;48.640;8.148;2023-07-13T11:17:57;27.60;39.60
19248;DHT22;9758;48.640;8.148;2023-07-13T11:20:35;27.70;39.70
19248;DHT22;9758;48.640;8.148;2023-07-13T11:23:17;27.90;39.70
19248;DHT22;9758;48.640;8.148;2023-07-13T11:25:46;28.00;39.20
19248;DHT22;9758;48.640;8.148;2023-07-13T11:28:21;28.00;39.20
19248;DHT22;9758;48.640;8.148;2023-07-13T11:30:50;28.00;39.20
19248;DHT22;9758;48.640;8.148;2023-07-13T11:33:29;27.90;38.90
19248;DHT22;9758;48.640;8.148;2023-07-13T11:36:03;27.90;39.10
19248;DHT22;9758;48.640;8.148;2023-07-13T11:38:37;27.80;39.20
19248;DHT22;9758;48.640;8.148;2023-07-13T11:41:15;27.90;39.30
19248;DHT22;9758;48.640;8.148;2023-07-13T11:43:44;27.90;39.20
19248;DHT22;9758;48.640;8.148;2023-07-13T11:46:15;28.00;39.00
19248;DHT22;9758;48.640;8.148;2023-07-13T11:48:42;27.90;38.70
19248;DHT22;9758;48.640;8.148;2023-07-13T11:51:19;27.90;38.90
19248;DHT22;9758;48.640;8.148;2023-07-13T11:53:49;27.80;39.00
19248;DHT22;9758;48.640;8.148;2023-07-13T11:56:18;27.90;39.20
19248;DHT22;9758;48.640;8.148;2023-07-13T11:58:48;28.00;39.20
19248;DHT22;9758;48.640;8.148;2023-07-13T12:01:20;28.10;38.20
19248;DHT22;9758;48.640;8.148;2023-07-13T12:03:48;28.10;38.60
19248;DHT22;9758;48.640;8.148;2023-07-13T12:06:27;28.10;38.20
19248;DHT22;9758;48.640;8.148;2023-07-13T12:08:56;28.00;38.40
19248;DHT22;9758;48.640;8.148;2023-07-13T12:11:56;28.00;38.40
19248;DHT22;9758;48.640;8.148;2023-07-13T12:14:23;28.10;38.70
19248;DHT22;9758;48.640;8.148;2023-07-13T12:16:52;28.20;38.50
19248;DHT22;9758;48.640;8.148;2023-07-13T12:19:21;28.30;38.60
19248;DHT22;9758;48.640;8.148;2023-07-13T12:21:48;28.30;38.00
19248;DHT22;9758;48.640;8.148;2023-07-13T12:24:17;28.40;38.00
19248;DHT22;9758;48.640;8.148;2023-07-13T12:26:44;28.30;38.10
19248;DHT22;9758;48.640;8.148;2023-07-13T12:29:16;28.30;38.10
19248;DHT22;9758;48.640;8.148;2023-07-13T12:31:46;28.30;38.10
19248;DHT22;9758;48.640;8.148;2023-07-13T12:34:15;28.30;38.10
19248;DHT22;9758;48.640;8.148;2023-07-13T12:36:47;28.30;38.20
19248;DHT22;9758;48.640;8.148;2023-07-13T12:39:18;28.30;38.10
19248;DHT22;9758;48.640;8.148;2023-07-13T12:41:46;28.30;37.80
19248;DHT22;9758;48.640;8.148;2023-07-13T12:44:16;28.30;38.20
19248;DHT22;9758;48.640;8.148;2023-07-13T12:46:56;28.40;37.20
19248;DHT22;9758;48.640;8.148;2023-07-13T12:49:27;28.40;37.90
19248;DHT22;9758;48.640;8.148;2023-07-13T12:51:59;28.50;38.00
19248;DHT22;9758;48.640;8.148;2023-07-13T12:54:27;28.60;37.70
19248;DHT22;9758;48.640;8.148;2023-07-13T12:56:55;28.60;37.70
19248;DHT22;9758;48.640;8.148;2023-07-13T12:59:31;28.70;37.50
19248;DHT22;9758;48.640;8.148;2023-07-13T13:02:02;28.70;37.60
19248;DHT22;9758;48.640;8.148;2023-07-13T13:04:30;28.80;37.70
19248;DHT22;9758;48.640;8.148;2023-07-13T13:07:05;28.80;37.40
19248;DHT22;9758;48.640;8.148;2023-07-13T13:09:35;28.90;37.30
19248;DHT22;9758;48.640;8.148;2023-07-13T13:12:01;28.80;37.50
19248;DHT22;9758;48.640;8.148;2023-07-13T13:14:29;28.80;37.10
19248;DHT22;9758;48.640;8.148;2023-07-13T13:16:56;28.80;37.40
19248;DHT22;9758;48.640;8.148;2023-07-13T13:19:25;28.80;37.60
19248;DHT22;9758;48.640;8.148;2023-07-13T13:21:54;29.00;38.20
19248;DHT22;9758;48.640;8.148;2023-07-13T13:24:24;29.00;37.30
19248;DHT22;9758;48.640;8.148;2023-07-13T13:26:53;29.10;37.40
19248;DHT22;9758;48.640;8.148;2023-07-13T13:29:23;29.20;37.40
19248;DHT22;9758;48.640;8.148;2023-07-13T13:31:52;29.20;36.90
19248;DHT22;9758;48.640;8.148;2023-07-13T13:34:21;29.20;37.10
19248;DHT22;9758;48.640;8.148;2023-07-13T13:36:49;29.20;37.00
19248;DHT22;9758;48.640;8.148;2023-07-13T13:39:21;29.20;36.90
19248;DHT22;9758;48.640;8.148;2023-07-13T13:41:50;29.30;37.00
19248;DHT22;9758;48.640;8.148;2023-07-13T13:44:19;29.40;37.10
19248;DHT22;9758;48.640;8.148;2023-07-13T13:46:48;29.40;37.00
19248;DHT22;9758;48.640;8.148;2023-07-13T13:49:20;29.50;37.10
19248;DHT22;9758;48.640;8.148;2023-07-13T13:51:48;29.50;36.80
19248;DHT22;9758;48.640;8.148;2023-07-13T13:54:17;29.50;36.80
19248;DHT22;9758;48.640;8.148;2023-07-13T13:56:46;29.50;36.80
19248;DHT22;9758;48.640;8.148;2023-07-13T13:59:13;29.60;36.70
19248;DHT22;9758;48.640;8.148;2023-07-13T14:01:41;29.50;36.50
19248;DHT22;9758;48.640;8.148;2023-07-13T14:04:09;29.50;36.70
19248;DHT22;9758;48.640;8.148;2023-07-13T14:06:41;29.50;36.70
19248;DHT22;9758;48.640;8.148;2023-07-13T14:09:10;29.50;36.80
19248;DHT22;9758;48.640;8.148;2023-07-13T14:11:38;29.60;35.70
19248;DHT22;9758;48.640;8.148;2023-07-13T14:14:11;29.60;36.30
19248;DHT22;9758;48.640;8.148;2023-07-13T14:16:39;29.50;36.30
19248;DHT22;9758;48.640;8.148;2023-07-13T14:19:08;29.50;36.20
19248;DHT22;9758;48.640;8.148;2023-07-13T14:21:36;29.50;36.20
19248;DHT22;9758;48.640;8.148;2023-07-13T14:24:04;29.40;36.10
19248;DHT22;9758;48.640;8.148;2023-07-13T14:26:36;29.30;35.90
19248;DHT22;9758;48.640;8.148;2023-07-13T14:29:08;29.30;36.00
19248;DHT22;9758;48.640;8.148;2023-07-13T14:31:37;29.20;36.30
19248;DHT22;9758;48.640;8.148;2023-07-13T14:34:03;29.20;36.20
19248;DHT22;9758;48.640;8.148;2023-07-13T14:36:32;29.30;36.50
19248;DHT22;9758;48.640;8.148;2023-07-13T14:39:04;29.40;36.50
19248;DHT22;9758;48.640;8.148;2023-07-13T14:41:37;29.50;36.20
19248;DHT22;9758;48.640;8.148;2023-07-13T14:44:10;29.70;36.00
19248;DHT22;9758;48.640;8.148;2023-07-13T14:46:37;29.80;36.10
19248;DHT22;9758;48.640;8.148;2023-07-13T14:49:06;30.00;35.70
19248;DHT22;9758;48.640;8.148;2023-07-13T14:51:36;30.10;35.40
19248;DHT22;9758;48.640;8.148;2023-07-13T14:54:05;30.20;35.60
19248;DHT22;9758;48.640;8.148;2023-07-13T14:56:32;30.30;35.50
19248;DHT22;9758;48.640;8.148;2023-07-13T14:59:00;30.30;35.50
19248;DHT22;9758;48.640;8.148;2023-07-13T15:01:28;30.40;35.60
19248;DHT22;9758;48.640;8.148;2023-07-13T15:03:56;30.50;35.00
19248;DHT22;9758;48.640;8.148;2023-07-13T15:06:23;30.60;35.00
19248;DHT22;9758;48.640;8.148;2023-07-13T15:08:50;30.60;35.20
19248;DHT22;9758;48.640;8.148;2023-07-13T15:11:17;30.70;34.80
19248;DHT22;9758;48.640;8.148;2023-07-13T15:13:44;30.60;35.00
19248;DHT22;9758;48.640;8.148;2023-07-13T15:16:16;30.70;35.10
19248;DHT22;9758;48.640;8.148;2023-07-13T15:18:44;30.70;35.00
19248;DHT22;9758;48.640;8.148;2023-07-13T15:21:14;30.70;34.20
19248;DHT22;9758;48.640;8.148;2023-07-13T15:23:44;30.60;34.60
19248;DHT22;9758;48.640;8.148;2023-07-13T15:26:12;30.50;34.00
19248;DHT22;9758;48.640;8.148;2023-07-13T15:28:41;30.30;34.60
19248;DHT22;9758;48.640;8.148;2023-07-13T15:31:21;30.30;34.30
19248;DHT22;9758;48.640;8.148;2023-07-13T15:33:49;30.30;34.80
19248;DHT22;9758;48.640;8.148;2023-07-13T15:36:17;30.50;35.10
19248;DHT22;9758;48.640;8.148;2023-07-13T15:38:45;31.00;35.30
19248;DHT22;9758;48.640;8.148;2023-07-13T15:41:20;31.70;35.00
19248;DHT22;9758;48.640;8.148;2023-07-13T15:43:49;32.10;33.60
19248;DHT22;9758;48.640;8.148;2023-07-13T15:46:17;32.20;34.40
19248;DHT22;9758;48.640;8.148;2023-07-13T15:48:46;32.70;34.20
19248;DHT22;9758;48.640;8.148;2023-07-13T15:51:18;33.30;33.50
19248;DHT22;9758;48.640;8.148;2023-07-13T15:53:46;33.70;34.00
19248;DHT22;9758;48.640;8.148;2023-07-13T15:56:18;34.30;33.20